sensor_id;sensor_type;location;lat;lon;timestamp;P1;durP1;ratioP1;P2;durP2;ratioP2
37049;SDS011;22958;51.232;6.826;2023-12-22T00:01:24;14.10;;;2.60;;
37049;SDS011;22958;51.232;6.826;2023-12-22T00:03:50;12.03;;;1.97;;
37049;SDS011;22958;51.232;6.826;2023-12-22T00:06:15;14.43;;;2.53;;
37049;SDS011;22958;51.232;6.826;2023-12-22T00:08:41;13.93;;;1.63;;
37049;SDS011;22958;51.232;6.826;2023-12-22T00:11:06;21.83;;;2.17;;
37049;SDS011;22958;51.232;6.826;2023-12-22T00:13:32;24.30;;;2.57;;
37049;SDS011;22958;51.232;6.826;2023-12-22T00:15:58;14.85;;;1.52;;
37049;SDS011;22958;51.232;6.826;2023-12-22T00:20:51;17.52;;;2.78;;
37049;SDS011;22958;51.232;6.826;2023-12-22T00:23:16;17.27;;;1.20;;
37049;SDS011;22958;51.232;6.826;2023-12-22T00:25:42;11.40;;;1.80;;
37049;SDS011;22958;51.232;6.826;2023-12-22T00:28:07;14.47;;;1.43;;
37049;SDS011;22958;51.232;6.826;2023-12-22T00:30:33;15.77;;;1.40;;
37049;SDS011;22958;51.232;6.826;2023-12-22T00:32:59;17.00;;;1.00;;
37049;SDS011;22958;51.232;6.826;2023-12-22T00:35:24;11.73;;;1.67;;
37049;SDS011;22958;51.232;6.826;2023-12-22T00:37:50;10.57;;;1.47;;
37049;SDS011;22958;51.232;6.826;2023-12-22T00:40:15;15.23;;;1.80;;
37049;SDS011;22958;51.232;6.826;2023-12-22T00:42:41;10.43;;;1.37;;
37049;SDS011;22958;51.232;6.826;2023-12-22T00:45:06;19.07;;;1.73;;
37049;SDS011;22958;51.232;6.826;2023-12-22T00:47:32;10.93;;;2.00;;
37049;SDS011;22958;51.232;6.826;2023-12-22T00:50:00;16.38;;;2.35;;
37049;SDS011;22958;51.232;6.826;2023-12-22T00:52:26;12.65;;;1.92;;
37049;SDS011;22958;51.232;6.826;2023-12-22T00:54:52;17.93;;;1.53;;
37049;SDS011;22958;51.232;6.826;2023-12-22T00:57:17;18.90;;;1.87;;
37049;SDS011;22958;51.232;6.826;2023-12-22T00:59:43;14.60;;;2.27;;
37049;SDS011;22958;51.232;6.826;2023-12-22T01:02:12;13.02;;;1.63;;
37049;SDS011;22958;51.232;6.826;2023-12-22T01:04:42;17.08;;;1.63;;
37049;SDS011;22958;51.232;6.826;2023-12-22T01:07:08;14.80;;;2.15;;
37049;SDS011;22958;51.232;6.826;2023-12-22T01:09:34;13.63;;;1.63;;
37049;SDS011;22958;51.232;6.826;2023-12-22T01:12:01;20.58;;;2.22;;
37049;SDS011;22958;51.232;6.826;2023-12-22T01:14:31;15.57;;;3.13;;
37049;SDS011;22958;51.232;6.826;2023-12-22T01:16:56;18.83;;;2.07;;
37049;SDS011;22958;51.232;6.826;2023-12-22T01:19:24;18.52;;;1.98;;
37049;SDS011;22958;51.232;6.826;2023-12-22T01:21:49;13.07;;;2.33;;
37049;SDS011;22958;51.232;6.826;2023-12-22T01:24:15;11.33;;;1.63;;
37049;SDS011;22958;51.232;6.826;2023-12-22T01:26:40;18.87;;;2.20;;
37049;SDS011;22958;51.232;6.826;2023-12-22T01:29:06;11.47;;;1.60;;
37049;SDS011;22958;51.232;6.826;2023-12-22T01:31:31;20.03;;;2.63;;
37049;SDS011;22958;51.232;6.826;2023-12-22T01:33:57;14.73;;;2.23;;
37049;SDS011;22958;51.232;6.826;2023-12-22T01:36:22;20.90;;;2.13;;
37049;SDS011;22958;51.232;6.826;2023-12-22T01:38:48;16.37;;;2.00;;
37049;SDS011;22958;51.232;6.826;2023-12-22T01:41:13;14.97;;;2.13;;
37049;SDS011;22958;51.232;6.826;2023-12-22T01:43:39;19.23;;;2.20;;
37049;SDS011;22958;51.232;6.826;2023-12-22T01:46:04;20.03;;;1.67;;
37049;SDS011;22958;51.232;6.826;2023-12-22T01:48:32;24.80;;;2.33;;
37049;SDS011;22958;51.232;6.826;2023-12-22T01:53:25;13.93;;;1.83;;
37049;SDS011;22958;51.232;6.826;2023-12-22T01:55:52;18.73;;;2.42;;
37049;SDS011;22958;51.232;6.826;2023-12-22T01:58:19;14.07;;;2.28;;
37049;SDS011;22958;51.232;6.826;2023-12-22T02:00:45;12.60;;;2.35;;
37049;SDS011;22958;51.232;6.826;2023-12-22T02:03:11;14.40;;;1.73;;
37049;SDS011;22958;51.232;6.826;2023-12-22T02:05:37;18.75;;;2.22;;
37049;SDS011;22958;51.232;6.826;2023-12-22T02:08:05;10.00;;;1.23;;
37049;SDS011;22958;51.232;6.826;2023-12-22T02:10:30;20.00;;;3.00;;
37049;SDS011;22958;51.232;6.826;2023-12-22T02:12:56;18.00;;;2.33;;
37049;SDS011;22958;51.232;6.826;2023-12-22T02:15:22;19.63;;;3.90;;
37049;SDS011;22958;51.232;6.826;2023-12-22T02:20:17;29.08;;;2.70;;
37049;SDS011;22958;51.232;6.826;2023-12-22T02:22:43;17.70;;;2.23;;
37049;SDS011;22958;51.232;6.826;2023-12-22T02:25:08;13.63;;;1.67;;
37049;SDS011;22958;51.232;6.826;2023-12-22T02:30:11;9.40;;;1.55;;
37049;SDS011;22958;51.232;6.826;2023-12-22T02:32:42;7.53;;;1.40;;
37049;SDS011;22958;51.232;6.826;2023-12-22T02:35:14;9.32;;;1.27;;
37049;SDS011;22958;51.232;6.826;2023-12-22T02:37:43;9.40;;;1.05;;
37049;SDS011;22958;51.232;6.826;2023-12-22T02:40:11;12.60;;;1.73;;
37049;SDS011;22958;51.232;6.826;2023-12-22T02:42:37;14.75;;;1.17;;
37049;SDS011;22958;51.232;6.826;2023-12-22T02:45:04;7.43;;;0.95;;
37049;SDS011;22958;51.232;6.826;2023-12-22T02:47:30;14.40;;;1.15;;
37049;SDS011;22958;51.232;6.826;2023-12-22T02:49:58;7.38;;;0.90;;
37049;SDS011;22958;51.232;6.826;2023-12-22T02:52:23;13.60;;;1.03;;
37049;SDS011;22958;51.232;6.826;2023-12-22T02:54:49;7.33;;;1.50;;
37049;SDS011;22958;51.232;6.826;2023-12-22T02:57:15;10.67;;;0.80;;
37049;SDS011;22958;51.232;6.826;2023-12-22T02:59:40;11.67;;;1.03;;
37049;SDS011;22958;51.232;6.826;2023-12-22T03:02:06;14.87;;;1.27;;
37049;SDS011;22958;51.232;6.826;2023-12-22T03:04:31;3.87;;;0.80;;
37049;SDS011;22958;51.232;6.826;2023-12-22T03:06:57;11.00;;;1.23;;
37049;SDS011;22958;51.232;6.826;2023-12-22T03:09:23;12.87;;;1.10;;
37049;SDS011;22958;51.232;6.826;2023-12-22T03:11:48;11.47;;;1.30;;
37049;SDS011;22958;51.232;6.826;2023-12-22T03:14:14;9.05;;;0.85;;
37049;SDS011;22958;51.232;6.826;2023-12-22T03:16:40;11.23;;;1.00;;
37049;SDS011;22958;51.232;6.826;2023-12-22T03:19:08;11.77;;;1.13;;
37049;SDS011;22958;51.232;6.826;2023-12-22T03:21:34;4.45;;;0.88;;
37049;SDS011;22958;51.232;6.826;2023-12-22T03:23:59;12.43;;;1.07;;
37049;SDS011;22958;51.232;6.826;2023-12-22T03:26:28;8.20;;;1.03;;
37049;SDS011;22958;51.232;6.826;2023-12-22T03:28:53;6.93;;;1.13;;
37049;SDS011;22958;51.232;6.826;2023-12-22T03:31:19;10.30;;;1.03;;
37049;SDS011;22958;51.232;6.826;2023-12-22T03:33:45;14.57;;;1.43;;
37049;SDS011;22958;51.232;6.826;2023-12-22T03:36:10;10.13;;;1.30;;
37049;SDS011;22958;51.232;6.826;2023-12-22T03:38:36;7.57;;;0.80;;
37049;SDS011;22958;51.232;6.826;2023-12-22T03:41:01;8.80;;;1.40;;
37049;SDS011;22958;51.232;6.826;2023-12-22T03:43:27;10.60;;;1.47;;
37049;SDS011;22958;51.232;6.826;2023-12-22T03:45:55;14.25;;;1.95;;
37049;SDS011;22958;51.232;6.826;2023-12-22T03:48:20;9.02;;;1.35;;
37049;SDS011;22958;51.232;6.826;2023-12-22T03:50:46;10.10;;;1.10;;
37049;SDS011;22958;51.232;6.826;2023-12-22T03:53:11;9.23;;;1.43;;
37049;SDS011;22958;51.232;6.826;2023-12-22T03:55:37;11.33;;;1.60;;
37049;SDS011;22958;51.232;6.826;2023-12-22T03:58:02;10.93;;;2.27;;
37049;SDS011;22958;51.232;6.826;2023-12-22T04:00:29;8.55;;;1.33;;
37049;SDS011;22958;51.232;6.826;2023-12-22T04:02:55;12.53;;;1.50;;
37049;SDS011;22958;51.232;6.826;2023-12-22T04:05:21;13.13;;;1.67;;
37049;SDS011;22958;51.232;6.826;2023-12-22T04:07:46;13.67;;;1.73;;
37049;SDS011;22958;51.232;6.826;2023-12-22T04:10:12;16.80;;;2.13;;
37049;SDS011;22958;51.232;6.826;2023-12-22T04:12:37;24.07;;;2.17;;
37049;SDS011;22958;51.232;6.826;2023-12-22T04:15:03;14.27;;;2.00;;
37049;SDS011;22958;51.232;6.826;2023-12-22T04:17:29;17.00;;;2.65;;
37049;SDS011;22958;51.232;6.826;2023-12-22T04:19:55;22.43;;;3.00;;
37049;SDS011;22958;51.232;6.826;2023-12-22T04:22:20;23.33;;;2.20;;
37049;SDS011;22958;51.232;6.826;2023-12-22T04:24:48;25.77;;;2.70;;
37049;SDS011;22958;51.232;6.826;2023-12-22T04:27:13;22.27;;;2.50;;
37049;SDS011;22958;51.232;6.826;2023-12-22T04:29:39;22.90;;;2.70;;
37049;SDS011;22958;51.232;6.826;2023-12-22T04:32:04;24.40;;;3.53;;
37049;SDS011;22958;51.232;6.826;2023-12-22T04:34:30;20.13;;;2.80;;
37049;SDS011;22958;51.232;6.826;2023-12-22T04:36:56;32.50;;;4.17;;
37049;SDS011;22958;51.232;6.826;2023-12-22T04:39:21;25.13;;;3.43;;
37049;SDS011;22958;51.232;6.826;2023-12-22T04:41:46;42.63;;;3.67;;
37049;SDS011;22958;51.232;6.826;2023-12-22T04:44:12;27.03;;;3.97;;
37049;SDS011;22958;51.232;6.826;2023-12-22T04:46:37;27.77;;;4.13;;
37049;SDS011;22958;51.232;6.826;2023-12-22T04:49:03;29.53;;;3.43;;
37049;SDS011;22958;51.232;6.826;2023-12-22T04:51:28;25.17;;;3.57;;
37049;SDS011;22958;51.232;6.826;2023-12-22T04:53:54;35.93;;;4.10;;
37049;SDS011;22958;51.232;6.826;2023-12-22T04:56:19;23.67;;;4.20;;
37049;SDS011;22958;51.232;6.826;2023-12-22T04:58:45;36.80;;;4.97;;
37049;SDS011;22958;51.232;6.826;2023-12-22T05:01:11;27.90;;;4.37;;
37049;SDS011;22958;51.232;6.826;2023-12-22T05:03:36;39.60;;;3.30;;
37049;SDS011;22958;51.232;6.826;2023-12-22T05:06:02;28.90;;;3.10;;
37049;SDS011;22958;51.232;6.826;2023-12-22T05:08:28;25.90;;;3.70;;
37049;SDS011;22958;51.232;6.826;2023-12-22T05:10:53;34.17;;;3.50;;
37049;SDS011;22958;51.232;6.826;2023-12-22T05:13:19;31.97;;;5.30;;
37049;SDS011;22958;51.232;6.826;2023-12-22T05:15:44;18.57;;;3.87;;
37049;SDS011;22958;51.232;6.826;2023-12-22T05:18:10;31.47;;;4.43;;
37049;SDS011;22958;51.232;6.826;2023-12-22T05:20:36;46.80;;;5.10;;
37049;SDS011;22958;51.232;6.826;2023-12-22T05:23:01;35.20;;;5.43;;
37049;SDS011;22958;51.232;6.826;2023-12-22T05:25:27;32.17;;;3.37;;
37049;SDS011;22958;51.232;6.826;2023-12-22T05:27:53;35.72;;;3.72;;
37049;SDS011;22958;51.232;6.826;2023-12-22T05:30:19;32.67;;;4.07;;
37049;SDS011;22958;51.232;6.826;2023-12-22T05:32:45;28.10;;;4.37;;
37049;SDS011;22958;51.232;6.826;2023-12-22T05:35:10;20.43;;;2.87;;
37049;SDS011;22958;51.232;6.826;2023-12-22T05:37:36;35.50;;;4.50;;
37049;SDS011;22958;51.232;6.826;2023-12-22T05:40:02;35.23;;;3.47;;
37049;SDS011;22958;51.232;6.826;2023-12-22T05:42:28;24.47;;;3.43;;
37049;SDS011;22958;51.232;6.826;2023-12-22T05:44:53;31.03;;;3.33;;
37049;SDS011;22958;51.232;6.826;2023-12-22T05:47:18;19.60;;;3.20;;
37049;SDS011;22958;51.232;6.826;2023-12-22T05:49:44;22.27;;;3.57;;
37049;SDS011;22958;51.232;6.826;2023-12-22T05:52:11;26.70;;;4.57;;
37049;SDS011;22958;51.232;6.826;2023-12-22T05:57:02;26.85;;;3.40;;
37049;SDS011;22958;51.232;6.826;2023-12-22T05:59:30;40.53;;;4.10;;
37049;SDS011;22958;51.232;6.826;2023-12-22T06:01:57;26.88;;;4.47;;
37049;SDS011;22958;51.232;6.826;2023-12-22T06:04:23;20.70;;;2.85;;
37049;SDS011;22958;51.232;6.826;2023-12-22T06:06:49;31.35;;;4.32;;
37049;SDS011;22958;51.232;6.826;2023-12-22T06:09:15;26.13;;;3.80;;
37049;SDS011;22958;51.232;6.826;2023-12-22T06:11:43;23.52;;;3.45;;
37049;SDS011;22958;51.232;6.826;2023-12-22T06:14:09;33.75;;;4.43;;
37049;SDS011;22958;51.232;6.826;2023-12-22T06:16:34;30.37;;;4.30;;
37049;SDS011;22958;51.232;6.826;2023-12-22T06:19:00;23.40;;;3.30;;
37049;SDS011;22958;51.232;6.826;2023-12-22T06:21:25;18.43;;;3.47;;
37049;SDS011;22958;51.232;6.826;2023-12-22T06:23:51;31.97;;;3.20;;
37049;SDS011;22958;51.232;6.826;2023-12-22T06:26:16;23.23;;;3.60;;
37049;SDS011;22958;51.232;6.826;2023-12-22T06:28:42;25.83;;;4.10;;
37049;SDS011;22958;51.232;6.826;2023-12-22T06:31:08;40.60;;;5.57;;
37049;SDS011;22958;51.232;6.826;2023-12-22T06:33:43;27.98;;;3.53;;
37049;SDS011;22958;51.232;6.826;2023-12-22T06:36:17;26.73;;;3.33;;
37049;SDS011;22958;51.232;6.826;2023-12-22T06:38:49;20.88;;;2.92;;
37049;SDS011;22958;51.232;6.826;2023-12-22T06:41:19;32.40;;;3.38;;
37049;SDS011;22958;51.232;6.826;2023-12-22T06:43:49;26.67;;;3.95;;
37049;SDS011;22958;51.232;6.826;2023-12-22T06:46:16;32.83;;;3.65;;
37049;SDS011;22958;51.232;6.826;2023-12-22T06:48:47;21.65;;;3.38;;
37049;SDS011;22958;51.232;6.826;2023-12-22T06:53:58;25.55;;;3.20;;
37049;SDS011;22958;51.232;6.826;2023-12-22T06:58:52;35.83;;;4.38;;
37049;SDS011;22958;51.232;6.826;2023-12-22T07:03:45;32.20;;;4.20;;
37049;SDS011;22958;51.232;6.826;2023-12-22T07:06:11;27.05;;;3.92;;
37049;SDS011;22958;51.232;6.826;2023-12-22T07:08:36;29.30;;;3.43;;
37049;SDS011;22958;51.232;6.826;2023-12-22T07:11:02;25.07;;;3.20;;
37049;SDS011;22958;51.232;6.826;2023-12-22T07:13:28;24.10;;;3.67;;
37049;SDS011;22958;51.232;6.826;2023-12-22T07:15:53;23.10;;;2.93;;
37049;SDS011;22958;51.232;6.826;2023-12-22T07:18:19;34.60;;;3.40;;
37049;SDS011;22958;51.232;6.826;2023-12-22T07:20:44;17.83;;;2.43;;
37049;SDS011;22958;51.232;6.826;2023-12-22T07:23:10;33.90;;;4.00;;
37049;SDS011;22958;51.232;6.826;2023-12-22T07:25:36;23.63;;;3.20;;
37049;SDS011;22958;51.232;6.826;2023-12-22T07:28:05;33.88;;;3.72;;
37049;SDS011;22958;51.232;6.826;2023-12-22T07:30:31;25.33;;;3.60;;
37049;SDS011;22958;51.232;6.826;2023-12-22T07:32:56;31.70;;;3.37;;
37049;SDS011;22958;51.232;6.826;2023-12-22T07:35:22;22.50;;;3.10;;
37049;SDS011;22958;51.232;6.826;2023-12-22T07:37:47;26.27;;;4.03;;
37049;SDS011;22958;51.232;6.826;2023-12-22T07:40:13;23.10;;;3.33;;
37049;SDS011;22958;51.232;6.826;2023-12-22T07:42:39;12.57;;;1.90;;
37049;SDS011;22958;51.232;6.826;2023-12-22T07:45:04;15.43;;;2.33;;
37049;SDS011;22958;51.232;6.826;2023-12-22T07:47:31;14.98;;;2.47;;
37049;SDS011;22958;51.232;6.826;2023-12-22T07:52:23;14.40;;;2.50;;
37049;SDS011;22958;51.232;6.826;2023-12-22T07:54:48;18.23;;;2.37;;
37049;SDS011;22958;51.232;6.826;2023-12-22T07:57:14;16.37;;;2.20;;
37049;SDS011;22958;51.232;6.826;2023-12-22T07:59:39;16.37;;;2.47;;
37049;SDS011;22958;51.232;6.826;2023-12-22T08:02:05;26.27;;;3.57;;
37049;SDS011;22958;51.232;6.826;2023-12-22T08:04:31;29.47;;;4.00;;
37049;SDS011;22958;51.232;6.826;2023-12-22T08:06:57;22.38;;;3.25;;
37049;SDS011;22958;51.232;6.826;2023-12-22T08:09:23;24.47;;;3.93;;
37049;SDS011;22958;51.232;6.826;2023-12-22T08:11:48;39.50;;;4.57;;
37049;SDS011;22958;51.232;6.826;2023-12-22T08:14:17;27.92;;;3.83;;
37049;SDS011;22958;51.232;6.826;2023-12-22T08:16:45;32.45;;;4.63;;
37049;SDS011;22958;51.232;6.826;2023-12-22T08:19:11;37.97;;;4.93;;
37049;SDS011;22958;51.232;6.826;2023-12-22T08:21:36;38.83;;;6.23;;
37049;SDS011;22958;51.232;6.826;2023-12-22T08:24:02;41.37;;;5.93;;
37049;SDS011;22958;51.232;6.826;2023-12-22T08:26:28;37.97;;;5.43;;
37049;SDS011;22958;51.232;6.826;2023-12-22T08:28:53;48.50;;;6.27;;
37049;SDS011;22958;51.232;6.826;2023-12-22T08:31:19;42.60;;;5.10;;
37049;SDS011;22958;51.232;6.826;2023-12-22T08:33:44;44.20;;;7.37;;
37049;SDS011;22958;51.232;6.826;2023-12-22T08:36:10;55.17;;;6.63;;
37049;SDS011;22958;51.232;6.826;2023-12-22T08:38:36;49.10;;;6.47;;
37049;SDS011;22958;51.232;6.826;2023-12-22T08:41:05;37.40;;;5.53;;
37049;SDS011;22958;51.232;6.826;2023-12-22T08:43:35;56.88;;;8.68;;
37049;SDS011;22958;51.232;6.826;2023-12-22T08:46:01;54.20;;;7.33;;
37049;SDS011;22958;51.232;6.826;2023-12-22T08:48:27;38.00;;;7.23;;
37049;SDS011;22958;51.232;6.826;2023-12-22T08:50:52;52.20;;;7.23;;
37049;SDS011;22958;51.232;6.826;2023-12-22T08:53:18;44.23;;;8.17;;
37049;SDS011;22958;51.232;6.826;2023-12-22T08:55:43;59.63;;;10.37;;
37049;SDS011;22958;51.232;6.826;2023-12-22T08:58:09;60.03;;;10.20;;
37049;SDS011;22958;51.232;6.826;2023-12-22T09:00:34;39.83;;;8.53;;
37049;SDS011;22958;51.232;6.826;2023-12-22T09:03:00;54.73;;;8.57;;
37049;SDS011;22958;51.232;6.826;2023-12-22T09:05:25;53.83;;;9.43;;
37049;SDS011;22958;51.232;6.826;2023-12-22T09:07:51;70.80;;;10.60;;
37049;SDS011;22958;51.232;6.826;2023-12-22T09:10:16;47.20;;;9.53;;
37049;SDS011;22958;51.232;6.826;2023-12-22T09:12:42;55.13;;;9.10;;
37049;SDS011;22958;51.232;6.826;2023-12-22T09:15:07;52.27;;;10.40;;
37049;SDS011;22958;51.232;6.826;2023-12-22T09:17:33;64.13;;;10.40;;
37049;SDS011;22958;51.232;6.826;2023-12-22T09:19:59;60.72;;;9.63;;
37049;SDS011;22958;51.232;6.826;2023-12-22T09:22:25;55.17;;;9.20;;
37049;SDS011;22958;51.232;6.826;2023-12-22T09:24:50;53.57;;;8.10;;
37049;SDS011;22958;51.232;6.826;2023-12-22T09:27:16;35.50;;;7.87;;
37049;SDS011;22958;51.232;6.826;2023-12-22T09:29:41;57.93;;;7.90;;
37049;SDS011;22958;51.232;6.826;2023-12-22T09:32:07;49.27;;;7.27;;
37049;SDS011;22958;51.232;6.826;2023-12-22T09:34:33;55.47;;;7.53;;
37049;SDS011;22958;51.232;6.826;2023-12-22T09:36:58;54.23;;;8.97;;
37049;SDS011;22958;51.232;6.826;2023-12-22T09:39:25;50.40;;;7.30;;
37049;SDS011;22958;51.232;6.826;2023-12-22T09:41:53;52.75;;;7.55;;
37049;SDS011;22958;51.232;6.826;2023-12-22T09:44:20;58.10;;;7.37;;
37049;SDS011;22958;51.232;6.826;2023-12-22T09:46:50;42.53;;;7.05;;
37049;SDS011;22958;51.232;6.826;2023-12-22T09:49:17;50.00;;;6.40;;
37049;SDS011;22958;51.232;6.826;2023-12-22T09:51:44;42.85;;;7.43;;
37049;SDS011;22958;51.232;6.826;2023-12-22T09:54:10;48.25;;;7.72;;
37049;SDS011;22958;51.232;6.826;2023-12-22T09:56:38;39.15;;;6.68;;
37049;SDS011;22958;51.232;6.826;2023-12-22T09:59:13;53.45;;;7.38;;
37049;SDS011;22958;51.232;6.826;2023-12-22T10:01:43;37.92;;;6.43;;
37049;SDS011;22958;51.232;6.826;2023-12-22T10:04:14;40.40;;;6.90;;
37049;SDS011;22958;51.232;6.826;2023-12-22T10:06:41;41.97;;;6.22;;
37049;SDS011;22958;51.232;6.826;2023-12-22T10:09:06;38.35;;;6.18;;
37049;SDS011;22958;51.232;6.826;2023-12-22T10:11:34;42.17;;;6.65;;
37049;SDS011;22958;51.232;6.826;2023-12-22T10:14:01;40.17;;;6.25;;
37049;SDS011;22958;51.232;6.826;2023-12-22T10:16:27;38.47;;;5.68;;
37049;SDS011;22958;51.232;6.826;2023-12-22T10:18:53;36.27;;;6.20;;
37049;SDS011;22958;51.232;6.826;2023-12-22T10:21:19;35.73;;;5.77;;
37049;SDS011;22958;51.232;6.826;2023-12-22T10:23:45;37.17;;;5.43;;
37049;SDS011;22958;51.232;6.826;2023-12-22T10:26:11;35.33;;;4.63;;
37049;SDS011;22958;51.232;6.826;2023-12-22T10:28:36;33.78;;;5.50;;
37049;SDS011;22958;51.232;6.826;2023-12-22T10:31:02;30.90;;;5.33;;
37049;SDS011;22958;51.232;6.826;2023-12-22T10:33:31;25.60;;;4.18;;
37049;SDS011;22958;51.232;6.826;2023-12-22T10:35:58;24.40;;;3.70;;
37049;SDS011;22958;51.232;6.826;2023-12-22T10:38:25;29.15;;;3.60;;
37049;SDS011;22958;51.232;6.826;2023-12-22T10:40:51;28.30;;;4.53;;
37049;SDS011;22958;51.232;6.826;2023-12-22T10:43:17;19.77;;;3.20;;
37049;SDS011;22958;51.232;6.826;2023-12-22T10:45:42;25.60;;;4.20;;
37049;SDS011;22958;51.232;6.826;2023-12-22T10:48:08;26.70;;;4.77;;
37049;SDS011;22958;51.232;6.826;2023-12-22T10:50:35;31.30;;;3.42;;
37049;SDS011;22958;51.232;6.826;2023-12-22T10:53:00;22.37;;;4.80;;
37049;SDS011;22958;51.232;6.826;2023-12-22T10:55:26;21.40;;;3.53;;
37049;SDS011;22958;51.232;6.826;2023-12-22T10:57:52;21.43;;;3.80;;
37049;SDS011;22958;51.232;6.826;2023-12-22T11:00:19;23.02;;;2.97;;
37049;SDS011;22958;51.232;6.826;2023-12-22T11:02:48;18.30;;;4.35;;
37049;SDS011;22958;51.232;6.826;2023-12-22T11:05:22;18.50;;;3.47;;
37049;SDS011;22958;51.232;6.826;2023-12-22T11:07:51;16.02;;;3.40;;
37049;SDS011;22958;51.232;6.826;2023-12-22T11:10:20;13.10;;;2.55;;
37049;SDS011;22958;51.232;6.826;2023-12-22T11:12:46;15.05;;;2.10;;
37049;SDS011;22958;51.232;6.826;2023-12-22T11:15:12;14.68;;;2.90;;
37049;SDS011;22958;51.232;6.826;2023-12-22T11:17:40;15.55;;;2.83;;
37049;SDS011;22958;51.232;6.826;2023-12-22T11:20:10;12.35;;;2.67;;
37049;SDS011;22958;51.232;6.826;2023-12-22T11:22:38;13.05;;;2.65;;
37049;SDS011;22958;51.232;6.826;2023-12-22T11:25:05;13.93;;;2.40;;
37049;SDS011;22958;51.232;6.826;2023-12-22T11:27:33;10.93;;;2.38;;
37049;SDS011;22958;51.232;6.826;2023-12-22T11:29:59;13.13;;;2.40;;
37049;SDS011;22958;51.232;6.826;2023-12-22T11:32:26;14.90;;;2.10;;
37049;SDS011;22958;51.232;6.826;2023-12-22T11:34:53;15.02;;;2.15;;
37049;SDS011;22958;51.232;6.826;2023-12-22T11:37:21;11.45;;;1.73;;
37049;SDS011;22958;51.232;6.826;2023-12-22T11:39:47;6.37;;;1.70;;
37049;SDS011;22958;51.232;6.826;2023-12-22T11:42:17;8.43;;;1.70;;
37049;SDS011;22958;51.232;6.826;2023-12-22T11:44:46;8.63;;;1.85;;
37049;SDS011;22958;51.232;6.826;2023-12-22T11:47:12;14.70;;;2.03;;
37049;SDS011;22958;51.232;6.826;2023-12-22T11:49:39;12.07;;;2.05;;
37049;SDS011;22958;51.232;6.826;2023-12-22T11:52:11;12.45;;;1.80;;
37049;SDS011;22958;51.232;6.826;2023-12-22T11:54:47;9.80;;;1.80;;
37049;SDS011;22958;51.232;6.826;2023-12-22T11:57:47;5.43;;;1.30;;
37049;SDS011;22958;51.232;6.826;2023-12-22T12:00:07;9.90;;;1.50;;
37049;SDS011;22958;51.232;6.826;2023-12-22T12:02:35;12.10;;;1.65;;
37049;SDS011;22958;51.232;6.826;2023-12-22T12:05:02;5.50;;;1.30;;
37049;SDS011;22958;51.232;6.826;2023-12-22T12:10:36;10.30;;;1.40;;
37049;SDS011;22958;51.232;6.826;2023-12-22T12:13:05;7.00;;;1.08;;
37049;SDS011;22958;51.232;6.826;2023-12-22T12:15:35;7.72;;;1.25;;
37049;SDS011;22958;51.232;6.826;2023-12-22T12:18:01;11.18;;;1.17;;
37049;SDS011;22958;51.232;6.826;2023-12-22T12:22:54;8.43;;;1.67;;
37049;SDS011;22958;51.232;6.826;2023-12-22T12:25:22;13.23;;;1.70;;
37049;SDS011;22958;51.232;6.826;2023-12-22T12:28:07;7.07;;;1.40;;
37049;SDS011;22958;51.232;6.826;2023-12-22T12:30:37;10.02;;;1.88;;
37049;SDS011;22958;51.232;6.826;2023-12-22T12:35:37;8.98;;;1.20;;
37049;SDS011;22958;51.232;6.826;2023-12-22T12:38:03;10.75;;;1.65;;
37049;SDS011;22958;51.232;6.826;2023-12-22T12:40:29;11.38;;;1.60;;
37049;SDS011;22958;51.232;6.826;2023-12-22T12:42:57;6.10;;;1.30;;
37049;SDS011;22958;51.232;6.826;2023-12-22T12:45:23;19.80;;;2.03;;
37049;SDS011;22958;51.232;6.826;2023-12-22T12:47:55;8.33;;;1.60;;
37049;SDS011;22958;51.232;6.826;2023-12-22T12:50:22;7.60;;;1.42;;
37049;SDS011;22958;51.232;6.826;2023-12-22T12:52:48;6.30;;;1.27;;
37049;SDS011;22958;51.232;6.826;2023-12-22T12:55:16;5.85;;;1.38;;
37049;SDS011;22958;51.232;6.826;2023-12-22T12:57:43;5.93;;;1.27;;
37049;SDS011;22958;51.232;6.826;2023-12-22T13:00:09;9.32;;;2.05;;
37049;SDS011;22958;51.232;6.826;2023-12-22T13:02:35;7.72;;;1.58;;
37049;SDS011;22958;51.232;6.826;2023-12-22T13:05:01;7.07;;;1.90;;
37049;SDS011;22958;51.232;6.826;2023-12-22T13:07:29;9.80;;;1.58;;
37049;SDS011;22958;51.232;6.826;2023-12-22T13:09:55;7.20;;;1.52;;
37049;SDS011;22958;51.232;6.826;2023-12-22T13:12:22;8.85;;;1.25;;
37049;SDS011;22958;51.232;6.826;2023-12-22T13:17:13;10.05;;;1.63;;
37049;SDS011;22958;51.232;6.826;2023-12-22T13:19:39;12.53;;;1.87;;
37049;SDS011;22958;51.232;6.826;2023-12-22T13:22:04;6.33;;;1.10;;
37049;SDS011;22958;51.232;6.826;2023-12-22T13:24:30;13.17;;;2.10;;
37049;SDS011;22958;51.232;6.826;2023-12-22T13:27:00;9.90;;;2.13;;
37049;SDS011;22958;51.232;6.826;2023-12-22T13:29:27;10.18;;;1.40;;
37049;SDS011;22958;51.232;6.826;2023-12-22T13:31:53;8.18;;;1.55;;
37049;SDS011;22958;51.232;6.826;2023-12-22T13:34:19;8.25;;;1.52;;
37049;SDS011;22958;51.232;6.826;2023-12-22T13:36:45;8.93;;;1.50;;
37049;SDS011;22958;51.232;6.826;2023-12-22T13:39:11;14.53;;;1.60;;
37049;SDS011;22958;51.232;6.826;2023-12-22T13:41:39;7.20;;;1.40;;
37049;SDS011;22958;51.232;6.826;2023-12-22T13:44:12;9.10;;;1.50;;
37049;SDS011;22958;51.232;6.826;2023-12-22T13:46:39;5.55;;;1.10;;
37049;SDS011;22958;51.232;6.826;2023-12-22T13:49:10;8.35;;;1.65;;
37049;SDS011;22958;51.232;6.826;2023-12-22T13:51:42;9.32;;;1.45;;
37049;SDS011;22958;51.232;6.826;2023-12-22T13:54:09;9.52;;;2.15;;
37049;SDS011;22958;51.232;6.826;2023-12-22T13:56:35;5.28;;;1.30;;
37049;SDS011;22958;51.232;6.826;2023-12-22T13:59:02;10.25;;;1.83;;
37049;SDS011;22958;51.232;6.826;2023-12-22T14:01:29;7.88;;;1.55;;
37049;SDS011;22958;51.232;6.826;2023-12-22T14:03:55;8.98;;;1.23;;
37049;SDS011;22958;51.232;6.826;2023-12-22T14:06:22;12.10;;;1.55;;
37049;SDS011;22958;51.232;6.826;2023-12-22T14:08:49;11.13;;;1.60;;
37049;SDS011;22958;51.232;6.826;2023-12-22T14:11:14;10.73;;;1.40;;
37049;SDS011;22958;51.232;6.826;2023-12-22T14:13:40;8.10;;;1.40;;
37049;SDS011;22958;51.232;6.826;2023-12-22T14:16:06;14.00;;;1.50;;
37049;SDS011;22958;51.232;6.826;2023-12-22T14:18:32;6.60;;;1.20;;
37049;SDS011;22958;51.232;6.826;2023-12-22T14:20:58;12.40;;;1.77;;
37049;SDS011;22958;51.232;6.826;2023-12-22T14:23:28;11.40;;;1.73;;
37049;SDS011;22958;51.232;6.826;2023-12-22T14:25:54;8.73;;;1.57;;
37049;SDS011;22958;51.232;6.826;2023-12-22T14:28:19;15.53;;;1.77;;
37049;SDS011;22958;51.232;6.826;2023-12-22T14:30:45;12.93;;;3.20;;
37049;SDS011;22958;51.232;6.826;2023-12-22T14:33:11;12.10;;;1.70;;
37049;SDS011;22958;51.232;6.826;2023-12-22T14:35:37;12.17;;;2.03;;
37049;SDS011;22958;51.232;6.826;2023-12-22T14:38:02;9.30;;;1.90;;
37049;SDS011;22958;51.232;6.826;2023-12-22T14:40:28;7.72;;;1.60;;
37049;SDS011;22958;51.232;6.826;2023-12-22T14:42:54;15.57;;;2.07;;
37049;SDS011;22958;51.232;6.826;2023-12-22T14:45:19;15.27;;;2.67;;
37049;SDS011;22958;51.232;6.826;2023-12-22T14:47:45;14.57;;;2.33;;
37049;SDS011;22958;51.232;6.826;2023-12-22T14:50:11;9.83;;;1.80;;
37049;SDS011;22958;51.232;6.826;2023-12-22T14:52:36;13.33;;;1.87;;
37049;SDS011;22958;51.232;6.826;2023-12-22T14:55:02;9.27;;;1.53;;
37049;SDS011;22958;51.232;6.826;2023-12-22T14:57:29;16.88;;;1.80;;
37049;SDS011;22958;51.232;6.826;2023-12-22T14:59:55;14.27;;;2.10;;
37049;SDS011;22958;51.232;6.826;2023-12-22T15:02:20;10.93;;;1.80;;
37049;SDS011;22958;51.232;6.826;2023-12-22T15:04:46;8.27;;;1.67;;